sensor_id;sensor_type;location;lat;lon;timestamp;pressure;altitude;pressure_sealevel;temperature;humidity
21234;BME280;10774;42.178;26.578;2023-04-07T00:00:17;99788.28;;;8.73;91.15
21234;BME280;10774;42.178;26.578;2023-04-07T00:02:42;99797.06;;;8.75;89.35
21234;BME280;10774;42.178;26.578;2023-04-07T00:05:08;99818.69;;;9.02;87.77
21234;BME280;10774;42.178;26.578;2023-04-07T00:07:33;99810.22;;;8.94;86.00
21234;BME280;10774;42.178;26.578;2023-04-07T00:09:59;99787.16;;;8.77;86.21
21234;BME280;10774;42.178;26.578;2023-04-07T00:12:25;99809.47;;;8.92;85.93
21234;BME280;10774;42.178;26.578;2023-04-07T00:14:50;99814.34;;;8.99;83.41
21234;BME280;10774;42.178;26.578;2023-04-07T00:17:16;99814.72;;;8.93;82.39
21234;BME280;10774;42.178;26.578;2023-04-07T00:19:41;99782.16;;;8.71;82.59
21234;BME280;10774;42.178;26.578;2023-04-07T00:22:08;99801.59;;;8.88;78.67
21234;BME280;10774;42.178;26.578;2023-04-07T00:24:33;99808.28;;;8.81;76.95
21234;BME280;10774;42.178;26.578;2023-04-07T00:26:58;99804.66;;;8.82;77.02
21234;BME280;10774;42.178;26.578;2023-04-07T00:29:25;99801.13;;;8.82;75.65
21234;BME280;10774;42.178;26.578;2023-04-07T00:31:50;99814.41;;;8.83;73.38
21234;BME280;10774;42.178;26.578;2023-04-07T00:34:15;99813.31;;;8.72;72.34
21234;BME280;10774;42.178;26.578;2023-04-07T00:36:41;99805.19;;;8.73;72.77
21234;BME280;10774;42.178;26.578;2023-04-07T00:39:06;99824.78;;;8.74;72.88
21234;BME280;10774;42.178;26.578;2023-04-07T00:41:33;99831.41;;;8.82;73.08
21234;BME280;10774;42.178;26.578;2023-04-07T00:44:00;99838.75;;;8.79;71.41
21234;BME280;10774;42.178;26.578;2023-04-07T00:46:25;99835.47;;;8.74;69.95
21234;BME280;10774;42.178;26.578;2023-04-07T00:48:51;99829.97;;;8.77;67.35
21234;BME280;10774;42.178;26.578;2023-04-07T00:51:19;99835.69;;;8.71;65.47
21234;BME280;10774;42.178;26.578;2023-04-07T00:53:45;99827.03;;;8.34;64.73
21234;BME280;10774;42.178;26.578;2023-04-07T00:56:11;99819.94;;;8.01;68.33
21234;BME280;10774;42.178;26.578;2023-04-07T00:58:37;99817.50;;;7.65;72.41
21234;BME280;10774;42.178;26.578;2023-04-07T01:03:39;99824.88;;;7.10;83.11
21234;BME280;10774;42.178;26.578;2023-04-07T01:06:11;99841.44;;;7.16;79.85
21234;BME280;10774;42.178;26.578;2023-04-07T01:11:41;99846.78;;;7.33;78.01
21234;BME280;10774;42.178;26.578;2023-04-07T01:14:09;99820.63;;;7.40;74.39
21234;BME280;10774;42.178;26.578;2023-04-07T01:16:55;99839.59;;;7.84;74.44
21234;BME280;10774;42.178;26.578;2023-04-07T01:19:46;99828.91;;;8.00;74.11
21234;BME280;10774;42.178;26.578;2023-04-07T01:22:15;99841.69;;;8.11;68.31
21234;BME280;10774;42.178;26.578;2023-04-07T01:30:04;99826.31;;;7.83;69.58
21234;BME280;10774;42.178;26.578;2023-04-07T01:32:35;99812.94;;;7.34;69.72
21234;BME280;10774;42.178;26.578;2023-04-07T01:35:01;99836.44;;;7.43;73.73
21234;BME280;10774;42.178;26.578;2023-04-07T01:37:29;99831.72;;;7.66;73.64
21234;BME280;10774;42.178;26.578;2023-04-07T01:39:54;99818.94;;;7.55;70.56
21234;BME280;10774;42.178;26.578;2023-04-07T01:42:20;99848.69;;;7.65;74.41
21234;BME280;10774;42.178;26.578;2023-04-07T01:44:46;99850.50;;;7.80;70.27
21234;BME280;10774;42.178;26.578;2023-04-07T01:47:13;99844.53;;;7.92;70.92
21234;BME280;10774;42.178;26.578;2023-04-07T01:49:39;99828.47;;;7.76;71.91
21234;BME280;10774;42.178;26.578;2023-04-07T01:52:06;99835.31;;;7.98;72.55
21234;BME280;10774;42.178;26.578;2023-04-07T01:54:33;99842.88;;;8.05;79.08
21234;BME280;10774;42.178;26.578;2023-04-07T01:56:58;99858.78;;;8.08;82.31
21234;BME280;10774;42.178;26.578;2023-04-07T01:59:24;99841.97;;;7.73;85.49
21234;BME280;10774;42.178;26.578;2023-04-07T02:01:49;99848.59;;;7.66;85.95
21234;BME280;10774;42.178;26.578;2023-04-07T02:04:25;99858.63;;;7.45;88.17
21234;BME280;10774;42.178;26.578;2023-04-07T02:06:58;99860.50;;;7.43;87.06
21234;BME280;10774;42.178;26.578;2023-04-07T02:09:26;99838.97;;;7.46;86.04
21234;BME280;10774;42.178;26.578;2023-04-07T02:11:57;99841.78;;;7.60;85.08
21234;BME280;10774;42.178;26.578;2023-04-07T02:14:24;99840.22;;;7.56;84.41
21234;BME280;10774;42.178;26.578;2023-04-07T02:16:50;99843.84;;;7.55;83.64
21234;BME280;10774;42.178;26.578;2023-04-07T02:19:17;99865.69;;;7.46;85.12
21234;BME280;10774;42.178;26.578;2023-04-07T02:21:44;99855.16;;;7.43;85.36
21234;BME280;10774;42.178;26.578;2023-04-07T02:24:11;99852.34;;;7.29;85.74
21234;BME280;10774;42.178;26.578;2023-04-07T02:26:37;99839.31;;;7.05;86.49
21234;BME280;10774;42.178;26.578;2023-04-07T02:29:03;99857.03;;;7.06;87.17
21234;BME280;10774;42.178;26.578;2023-04-07T02:31:29;99843.38;;;6.95;88.34
21234;BME280;10774;42.178;26.578;2023-04-07T02:33:54;99843.72;;;6.89;87.49
21234;BME280;10774;42.178;26.578;2023-04-07T02:36:20;99865.06;;;7.06;88.17
21234;BME280;10774;42.178;26.578;2023-04-07T02:38:45;99876.06;;;7.18;87.38
21234;BME280;10774;42.178;26.578;2023-04-07T02:41:10;99867.25;;;7.16;88.36
21234;BME280;10774;42.178;26.578;2023-04-07T02:43:36;99862.25;;;7.10;88.89
21234;BME280;10774;42.178;26.578;2023-04-07T02:46:01;99823.25;;;7.07;86.79
21234;BME280;10774;42.178;26.578;2023-04-07T02:48:27;99877.88;;;7.34;86.09
21234;BME280;10774;42.178;26.578;2023-04-07T02:50:52;99871.91;;;7.12;86.77
21234;BME280;10774;42.178;26.578;2023-04-07T02:53:17;99870.66;;;7.19;87.07
21234;BME280;10774;42.178;26.578;2023-04-07T02:55:43;99869.63;;;7.22;86.31
21234;BME280;10774;42.178;26.578;2023-04-07T02:58:08;99865.69;;;7.12;87.02
21234;BME280;10774;42.178;26.578;2023-04-07T03:00:34;99867.81;;;7.05;87.33
21234;BME280;10774;42.178;26.578;2023-04-07T03:02:59;99885.03;;;7.34;85.77
21234;BME280;10774;42.178;26.578;2023-04-07T03:05:25;99875.44;;;7.30;86.33
21234;BME280;10774;42.178;26.578;2023-04-07T03:07:51;99872.13;;;7.42;83.55
21234;BME280;10774;42.178;26.578;2023-04-07T03:10:16;99867.28;;;7.33;81.77
21234;BME280;10774;42.178;26.578;2023-04-07T03:12:42;99883.91;;;7.38;81.40
21234;BME280;10774;42.178;26.578;2023-04-07T03:15:08;99879.81;;;7.31;82.29
21234;BME280;10774;42.178;26.578;2023-04-07T03:17:34;99874.03;;;7.40;80.49
21234;BME280;10774;42.178;26.578;2023-04-07T03:19:59;99896.03;;;7.28;79.70
21234;BME280;10774;42.178;26.578;2023-04-07T03:22:25;99884.84;;;7.20;79.81
21234;BME280;10774;42.178;26.578;2023-04-07T03:24:50;99897.97;;;7.42;79.08
21234;BME280;10774;42.178;26.578;2023-04-07T03:27:16;99879.53;;;7.20;80.43
21234;BME280;10774;42.178;26.578;2023-04-07T03:29:41;99887.13;;;7.27;80.16
21234;BME280;10774;42.178;26.578;2023-04-07T03:32:07;99890.66;;;7.45;77.48
21234;BME280;10774;42.178;26.578;2023-04-07T03:34:33;99886.09;;;7.47;76.53
21234;BME280;10774;42.178;26.578;2023-04-07T03:36:58;99900.72;;;7.40;77.81
21234;BME280;10774;42.178;26.578;2023-04-07T03:39:24;99908.41;;;7.29;78.01
21234;BME280;10774;42.178;26.578;2023-04-07T03:41:49;99911.84;;;7.48;77.30
21234;BME280;10774;42.178;26.578;2023-04-07T03:44:16;99900.63;;;7.42;77.40
21234;BME280;10774;42.178;26.578;2023-04-07T03:46:41;99893.00;;;7.51;75.63
21234;BME280;10774;42.178;26.578;2023-04-07T03:49:07;99913.09;;;7.58;74.96
21234;BME280;10774;42.178;26.578;2023-04-07T03:51:32;99898.25;;;7.53;74.41
21234;BME280;10774;42.178;26.578;2023-04-07T03:53:58;99914.53;;;7.66;72.49
21234;BME280;10774;42.178;26.578;2023-04-07T03:56:24;99903.22;;;7.60;72.93
21234;BME280;10774;42.178;26.578;2023-04-07T03:58:49;99922.69;;;7.63;73.16
21234;BME280;10774;42.178;26.578;2023-04-07T04:01:15;99908.88;;;7.72;72.38
21234;BME280;10774;42.178;26.578;2023-04-07T04:03:41;99918.94;;;7.67;73.39
21234;BME280;10774;42.178;26.578;2023-04-07T04:06:06;99933.34;;;7.80;72.57
21234;BME280;10774;42.178;26.578;2023-04-07T04:08:32;99928.97;;;7.62;71.98
21234;BME280;10774;42.178;26.578;2023-04-07T04:10:57;99934.00;;;7.68;71.60
21234;BME280;10774;42.178;26.578;2023-04-07T04:13:23;99938.56;;;7.66;72.58
21234;BME280;10774;42.178;26.578;2023-04-07T04:15:48;99920.81;;;7.65;72.82
21234;BME280;10774;42.178;26.578;2023-04-07T04:18:13;99941.84;;;7.53;72.57
21234;BME280;10774;42.178;26.578;2023-04-07T04:20:39;99938.41;;;7.51;72.40
21234;BME280;10774;42.178;26.578;2023-04-07T04:23:05;99946.91;;;7.59;72.28
21234;BME280;10774;42.178;26.578;2023-04-07T04:25:30;99946.97;;;7.75;71.30
21234;BME280;10774;42.178;26.578;2023-04-07T04:27:56;99935.09;;;7.81;69.39
21234;BME280;10774;42.178;26.578;2023-04-07T04:30:21;99932.81;;;7.73;66.96
21234;BME280;10774;42.178;26.578;2023-04-07T04:32:46;99961.03;;;7.96;67.67
21234;BME280;10774;42.178;26.578;2023-04-07T04:35:12;99947.84;;;7.76;67.38
21234;BME280;10774;42.178;26.578;2023-04-07T04:37:37;99942.78;;;7.70;67.47
21234;BME280;10774;42.178;26.578;2023-04-07T04:40:03;99952.56;;;7.71;68.17
21234;BME280;10774;42.178;26.578;2023-04-07T04:42:32;99964.16;;;7.70;67.81
21234;BME280;10774;42.178;26.578;2023-04-07T04:44:58;99956.34;;;7.49;68.21
21234;BME280;10774;42.178;26.578;2023-04-07T04:47:23;99948.47;;;7.64;69.02
21234;BME280;10774;42.178;26.578;2023-04-07T04:49:48;99950.41;;;7.77;66.44
21234;BME280;10774;42.178;26.578;2023-04-07T04:52:14;99952.22;;;7.77;65.24
21234;BME280;10774;42.178;26.578;2023-04-07T04:54:39;99974.13;;;8.01;64.41
21234;BME280;10774;42.178;26.578;2023-04-07T04:57:05;99983.47;;;8.09;63.72
21234;BME280;10774;42.178;26.578;2023-04-07T04:59:30;99988.03;;;8.07;64.15
21234;BME280;10774;42.178;26.578;2023-04-07T05:01:56;99987.41;;;8.02;63.19
21234;BME280;10774;42.178;26.578;2023-04-07T05:04:21;99993.72;;;7.84;64.59
21234;BME280;10774;42.178;26.578;2023-04-07T05:06:46;99978.22;;;7.73;65.93
21234;BME280;10774;42.178;26.578;2023-04-07T05:09:12;99977.34;;;7.90;63.65
21234;BME280;10774;42.178;26.578;2023-04-07T05:11:39;99994.97;;;7.94;62.86
21234;BME280;10774;42.178;26.578;2023-04-07T05:14:05;100002.34;;;7.89;63.68
21234;BME280;10774;42.178;26.578;2023-04-07T05:16:30;100012.09;;;7.73;64.78
21234;BME280;10774;42.178;26.578;2023-04-07T05:18:55;100003.78;;;7.79;65.71
21234;BME280;10774;42.178;26.578;2023-04-07T05:21:21;100001.75;;;7.67;64.71
21234;BME280;10774;42.178;26.578;2023-04-07T05:23:46;100000.03;;;7.66;64.55
21234;BME280;10774;42.178;26.578;2023-04-07T05:26:12;99997.81;;;7.39;65.40
21234;BME280;10774;42.178;26.578;2023-04-07T05:28:37;100016.19;;;7.63;65.74
21234;BME280;10774;42.178;26.578;2023-04-07T05:31:02;100020.44;;;7.67;64.09
21234;BME280;10774;42.178;26.578;2023-04-07T05:33:28;100019.81;;;7.62;63.68
21234;BME280;10774;42.178;26.578;2023-04-07T05:35:53;100008.09;;;7.81;62.69
21234;BME280;10774;42.178;26.578;2023-04-07T05:38:19;100014.69;;;8.09;61.84
21234;BME280;10774;42.178;26.578;2023-04-07T05:40:45;100016.94;;;8.17;61.68
21234;BME280;10774;42.178;26.578;2023-04-07T05:43:11;100028.13;;;8.07;61.66
21234;BME280;10774;42.178;26.578;2023-04-07T05:45:36;100017.66;;;7.85;61.86
21234;BME280;10774;42.178;26.578;2023-04-07T05:48:02;100031.72;;;8.06;61.63
21234;BME280;10774;42.178;26.578;2023-04-07T05:50:27;100023.22;;;8.16;61.94
21234;BME280;10774;42.178;26.578;2023-04-07T05:52:52;100019.75;;;8.31;59.75
21234;BME280;10774;42.178;26.578;2023-04-07T05:55:18;100022.09;;;8.54;58.82
21234;BME280;10774;42.178;26.578;2023-04-07T05:57:43;100023.00;;;8.71;58.29
21234;BME280;10774;42.178;26.578;2023-04-07T06:00:09;100004.94;;;8.74;57.19
21234;BME280;10774;42.178;26.578;2023-04-07T06:02:35;100006.34;;;8.97;56.77
21234;BME280;10774;42.178;26.578;2023-04-07T06:05:01;100035.94;;;8.94;56.29
21234;BME280;10774;42.178;26.578;2023-04-07T06:07:26;100026.81;;;8.98;55.02
21234;BME280;10774;42.178;26.578;2023-04-07T06:09:52;100036.47;;;9.16;54.90
21234;BME280;10774;42.178;26.578;2023-04-07T06:12:17;100023.94;;;9.01;54.63
21234;BME280;10774;42.178;26.578;2023-04-07T06:14:49;100038.28;;;9.16;55.26
21234;BME280;10774;42.178;26.578;2023-04-07T06:17:15;100029.72;;;9.09;54.51
21234;BME280;10774;42.178;26.578;2023-04-07T06:19:41;100030.94;;;8.88;54.91
21234;BME280;10774;42.178;26.578;2023-04-07T06:22:06;100042.34;;;8.92;54.98
21234;BME280;10774;42.178;26.578;2023-04-07T06:24:32;100037.25;;;8.87;55.46
21234;BME280;10774;42.178;26.578;2023-04-07T06:26:57;100040.69;;;9.05;55.07
21234;BME280;10774;42.178;26.578;2023-04-07T06:29:25;100035.53;;;9.18;54.30
21234;BME280;10774;42.178;26.578;2023-04-07T06:31:51;100043.19;;;9.39;53.47
21234;BME280;10774;42.178;26.578;2023-04-07T06:34:16;100039.31;;;9.13;53.18
21234;BME280;10774;42.178;26.578;2023-04-07T06:36:42;100041.13;;;8.81;55.56
21234;BME280;10774;42.178;26.578;2023-04-07T06:39:07;100045.63;;;9.12;54.80
21234;BME280;10774;42.178;26.578;2023-04-07T06:41:33;100046.78;;;9.54;54.63
21234;BME280;10774;42.178;26.578;2023-04-07T06:43:59;100048.19;;;9.61;54.74
21234;BME280;10774;42.178;26.578;2023-04-07T06:46:25;100051.63;;;9.63;53.88
21234;BME280;10774;42.178;26.578;2023-04-07T06:48:51;100059.81;;;9.76;53.25
21234;BME280;10774;42.178;26.578;2023-04-07T06:51:16;100051.84;;;10.05;53.54
21234;BME280;10774;42.178;26.578;2023-04-07T06:53:42;100054.00;;;10.14;54.08
21234;BME280;10774;42.178;26.578;2023-04-07T06:56:11;100073.25;;;10.20;53.77
21234;BME280;10774;42.178;26.578;2023-04-07T06:58:37;100076.53;;;9.65;56.21
21234;BME280;10774;42.178;26.578;2023-04-07T07:01:03;100059.34;;;9.84;54.61
21234;BME280;10774;42.178;26.578;2023-04-07T07:03:29;100074.41;;;9.86;54.05
21234;BME280;10774;42.178;26.578;2023-04-07T07:05:58;100061.88;;;9.87;54.08
21234;BME280;10774;42.178;26.578;2023-04-07T07:08:25;100076.53;;;9.95;53.79
21234;BME280;10774;42.178;26.578;2023-04-07T07:10:51;100069.16;;;9.99;54.21
21234;BME280;10774;42.178;26.578;2023-04-07T07:13:22;100071.16;;;9.95;53.92
21234;BME280;10774;42.178;26.578;2023-04-07T07:15:48;100075.41;;;10.00;54.75
21234;BME280;10774;42.178;26.578;2023-04-07T07:18:14;100077.97;;;10.01;54.49
21234;BME280;10774;42.178;26.578;2023-04-07T07:20:39;100092.97;;;9.89;53.96
21234;BME280;10774;42.178;26.578;2023-04-07T07:23:05;100094.38;;;10.11;53.14
21234;BME280;10774;42.178;26.578;2023-04-07T07:25:30;100100.28;;;10.02;53.37
21234;BME280;10774;42.178;26.578;2023-04-07T07:27:56;100094.44;;;9.95;53.16
21234;BME280;10774;42.178;26.578;2023-04-07T07:30:22;100097.19;;;10.09;53.16
21234;BME280;10774;42.178;26.578;2023-04-07T07:32:48;100099.69;;;9.66;55.63
21234;BME280;10774;42.178;26.578;2023-04-07T07:35:14;100094.81;;;9.89;54.88
21234;BME280;10774;42.178;26.578;2023-04-07T07:37:40;100077.69;;;9.30;56.95
21234;BME280;10774;42.178;26.578;2023-04-07T07:40:05;100080.50;;;9.42;56.63
21234;BME280;10774;42.178;26.578;2023-04-07T07:42:31;100088.63;;;9.73;57.43
21234;BME280;10774;42.178;26.578;2023-04-07T07:44:57;100097.47;;;9.89;56.40
21234;BME280;10774;42.178;26.578;2023-04-07T07:47:24;100096.44;;;10.21;54.49
21234;BME280;10774;42.178;26.578;2023-04-07T07:49:50;100095.53;;;10.37;54.12
21234;BME280;10774;42.178;26.578;2023-04-07T07:52:15;100095.91;;;10.31;52.70
21234;BME280;10774;42.178;26.578;2023-04-07T07:54:41;100094.63;;;10.66;52.71
21234;BME280;10774;42.178;26.578;2023-04-07T07:57:06;100111.78;;;10.78;51.73
21234;BME280;10774;42.178;26.578;2023-04-07T07:59:32;100108.34;;;10.76;51.84
21234;BME280;10774;42.178;26.578;2023-04-07T08:01:58;100118.09;;;10.91;50.67
21234;BME280;10774;42.178;26.578;2023-04-07T08:04:23;100102.66;;;10.52;51.86
21234;BME280;10774;42.178;26.578;2023-04-07T08:06:49;100115.44;;;10.77;51.49
21234;BME280;10774;42.178;26.578;2023-04-07T08:09:16;100125.22;;;10.92;51.85
21234;BME280;10774;42.178;26.578;2023-04-07T08:11:41;100111.78;;;10.78;51.76
21234;BME280;10774;42.178;26.578;2023-04-07T08:14:07;100113.06;;;10.87;51.31
21234;BME280;10774;42.178;26.578;2023-04-07T08:16:32;100113.13;;;10.85;51.42
21234;BME280;10774;42.178;26.578;2023-04-07T08:18:58;100100.75;;;10.68;52.27
21234;BME280;10774;42.178;26.578;2023-04-07T08:21:23;100126.06;;;10.64;51.97
21234;BME280;10774;42.178;26.578;2023-04-07T08:23:52;100123.38;;;10.50;52.89
21234;BME280;10774;42.178;26.578;2023-04-07T08:26:18;100116.63;;;10.43;52.91
21234;BME280;10774;42.178;26.578;2023-04-07T08:28:43;100127.16;;;10.32;53.99
21234;BME280;10774;42.178;26.578;2023-04-07T08:31:09;100113.06;;;10.28;53.94
21234;BME280;10774;42.178;26.578;2023-04-07T08:33:34;100127.94;;;10.34;53.63
21234;BME280;10774;42.178;26.578;2023-04-07T08:36:00;100133.31;;;10.48;53.25
21234;BME280;10774;42.178;26.578;2023-04-07T08:38:25;100113.69;;;9.72;55.87
21234;BME280;10774;42.178;26.578;2023-04-07T08:40:54;100110.19;;;9.85;55.06
21234;BME280;10774;42.178;26.578;2023-04-07T08:43:23;100133.91;;;10.23;54.09
21234;BME280;10774;42.178;26.578;2023-04-07T08:45:50;100116.97;;;10.07;54.48
21234;BME280;10774;42.178;26.578;2023-04-07T08:48:17;100136.75;;;10.36;53.85
21234;BME280;10774;42.178;26.578;2023-04-07T08:50:48;100126.41;;;10.14;53.74
21234;BME280;10774;42.178;26.578;2023-04-07T08:53:19;100122.94;;;10.12;53.97
21234;BME280;10774;42.178;26.578;2023-04-07T08:55:47;100113.06;;;10.28;53.72
21234;BME280;10774;42.178;26.578;2023-04-07T08:58:13;100143.44;;;10.29;54.21
21234;BME280;10774;42.178;26.578;2023-04-07T09:00:40;100128.22;;;10.13;55.36
21234;BME280;10774;42.178;26.578;2023-04-07T09:03:08;100139.84;;;10.44;54.78
21234;BME280;10774;42.178;26.578;2023-04-07T09:05:34;100124.09;;;10.38;54.56
21234;BME280;10774;42.178;26.578;2023-04-07T09:08:01;100108.97;;;10.21;54.04
21234;BME280;10774;42.178;26.578;2023-04-07T09:10:27;100138.38;;;10.38;53.80
21234;BME280;10774;42.178;26.578;2023-04-07T09:12:53;100125.16;;;10.35;54.76
21234;BME280;10774;42.178;26.578;2023-04-07T09:15:19;100117.06;;;10.65;54.10
21234;BME280;10774;42.178;26.578;2023-04-07T09:17:44;100136.44;;;10.99;53.35
21234;BME280;10774;42.178;26.578;2023-04-07T09:20:10;100137.09;;;11.31;52.47
21234;BME280;10774;42.178;26.578;2023-04-07T09:22:39;100130.50;;;11.08;52.77
21234;BME280;10774;42.178;26.578;2023-04-07T09:25:17;100132.91;;;11.54;52.31
21234;BME280;10774;42.178;26.578;2023-04-07T09:28:12;100131.06;;;12.23;50.69
21234;BME280;10774;42.178;26.578;2023-04-07T09:30:51;100124.78;;;12.62;49.75
21234;BME280;10774;42.178;26.578;2023-04-07T09:33:26;100121.78;;;12.67;49.38
21234;BME280;10774;42.178;26.578;2023-04-07T09:35:52;100116.69;;;12.88;47.98
21234;BME280;10774;42.178;26.578;2023-04-07T09:38:18;100109.50;;;13.50;46.95
21234;BME280;10774;42.178;26.578;2023-04-07T09:40:43;100090.69;;;13.12;47.37
21234;BME280;10774;42.178;26.578;2023-04-07T09:43:15;100123.66;;;13.41;46.75
21234;BME280;10774;42.178;26.578;2023-04-07T09:45:41;100127.53;;;13.50;46.94
21234;BME280;10774;42.178;26.578;2023-04-07T09:48:08;100109.84;;;13.70;46.71
21234;BME280;10774;42.178;26.578;2023-04-07T09:50:42;100098.06;;;13.47;46.71
21234;BME280;10774;42.178;26.578;2023-04-07T09:53:10;100119.66;;;13.47;46.79
21234;BME280;10774;42.178;26.578;2023-04-07T09:55:36;100096.56;;;13.43;46.83
21234;BME280;10774;42.178;26.578;2023-04-07T09:58:04;100124.88;;;12.99;48.00
21234;BME280;10774;42.178;26.578;2023-04-07T10:00:30;100111.25;;;13.39;48.75
21234;BME280;10774;42.178;26.578;2023-04-07T10:02:56;100104.78;;;13.41;48.77
21234;BME280;10774;42.178;26.578;2023-04-07T10:05:23;100111.81;;;13.31;48.17
21234;BME280;10774;42.178;26.578;2023-04-07T10:07:49;100105.97;;;13.74;47.93
21234;BME280;10774;42.178;26.578;2023-04-07T10:10:14;100127.41;;;14.23;46.80
21234;BME280;10774;42.178;26.578;2023-04-07T10:12:40;100114.78;;;14.24;45.87
21234;BME280;10774;42.178;26.578;2023-04-07T10:15:06;100103.03;;;14.01;45.34
21234;BME280;10774;42.178;26.578;2023-04-07T10:17:32;100100.91;;;14.28;44.64
21234;BME280;10774;42.178;26.578;2023-04-07T10:20:00;100103.38;;;14.55;44.93
21234;BME280;10774;42.178;26.578;2023-04-07T10:22:27;100089.16;;;14.29;45.18
21234;BME280;10774;42.178;26.578;2023-04-07T10:25:05;100112.66;;;14.16;46.27
21234;BME280;10774;42.178;26.578;2023-04-07T10:27:35;100096.06;;;14.09;45.12
21234;BME280;10774;42.178;26.578;2023-04-07T10:30:04;100093.31;;;14.69;44.45
21234;BME280;10774;42.178;26.578;2023-04-07T10:32:31;100102.53;;;14.77;43.91
21234;BME280;10774;42.178;26.578;2023-04-07T10:34:57;100087.84;;;14.11;45.15
21234;BME280;10774;42.178;26.578;2023-04-07T10:37:24;100105.22;;;14.66;44.38
21234;BME280;10774;42.178;26.578;2023-04-07T10:40:25;100093.53;;;14.65;43.80
21234;BME280;10774;42.178;26.578;2023-04-07T10:45:03;100107.81;;;14.90;44.39
21234;BME280;10774;42.178;26.578;2023-04-07T10:47:29;100102.59;;;14.18;44.57
21234;BME280;10774;42.178;26.578;2023-04-07T10:50:17;100108.78;;;14.67;44.74
21234;BME280;10774;42.178;26.578;2023-04-07T10:52:44;100096.91;;;15.03;44.54
21234;BME280;10774;42.178;26.578;2023-04-07T11:03:25;100099.34;;;15.28;43.42
21234;BME280;10774;42.178;26.578;2023-04-07T11:05:50;100100.06;;;14.97;43.46
21234;BME280;10774;42.178;26.578;2023-04-07T11:08:36;100091.13;;;15.30;43.23
21234;BME280;10774;42.178;26.578;2023-04-07T11:11:06;100083.97;;;15.17;43.30
21234;BME280;10774;42.178;26.578;2023-04-07T11:13:47;100087.41;;;15.42;43.09
21234;BME280;10774;42.178;26.578;2023-04-07T11:16:14;100089.56;;;16.14;41.87
21234;BME280;10774;42.178;26.578;2023-04-07T11:18:40;100088.53;;;15.17;43.69
21234;BME280;10774;42.178;26.578;2023-04-07T11:21:07;100070.72;;;14.81;44.15
21234;BME280;10774;42.178;26.578;2023-04-07T11:23:43;100066.16;;;14.70;44.94
21234;BME280;10774;42.178;26.578;2023-04-07T11:26:11;100072.00;;;16.08;54.02
21234;BME280;10774;42.178;26.578;2023-04-07T11:28:50;100081.38;;;16.67;43.50
21234;BME280;10774;42.178;26.578;2023-04-07T11:31:27;100083.88;;;16.59;41.88
21234;BME280;10774;42.178;26.578;2023-04-07T11:33:55;100065.50;;;16.00;42.03
21234;BME280;10774;42.178;26.578;2023-04-07T11:36:31;100086.19;;;16.63;42.16
21234;BME280;10774;42.178;26.578;2023-04-07T11:38:57;100073.28;;;15.93;43.48
21234;BME280;10774;42.178;26.578;2023-04-07T11:41:27;100069.00;;;16.32;42.43
21234;BME280;10774;42.178;26.578;2023-04-07T11:44:08;100076.31;;;16.00;42.94
21234;BME280;10774;42.178;26.578;2023-04-07T11:46:34;100072.50;;;16.65;43.25
21234;BME280;10774;42.178;26.578;2023-04-07T11:49:13;100063.66;;;16.42;43.31
21234;BME280;10774;42.178;26.578;2023-04-07T11:51:39;100072.00;;;15.65;44.92
21234;BME280;10774;42.178;26.578;2023-04-07T11:54:05;100064.97;;;16.06;44.38
21234;BME280;10774;42.178;26.578;2023-04-07T11:56:43;100067.38;;;16.62;41.81
21234;BME280;10774;42.178;26.578;2023-04-07T11:59:18;100058.44;;;16.71;41.80
21234;BME280;10774;42.178;26.578;2023-04-07T12:01:44;100052.03;;;16.72;40.67
21234;BME280;10774;42.178;26.578;2023-04-07T12:04:12;100059.13;;;17.24;47.87
21234;BME280;10774;42.178;26.578;2023-04-07T12:06:38;100059.41;;;17.31;47.12
21234;BME280;10774;42.178;26.578;2023-04-07T12:09:05;100039.06;;;17.56;40.60
21234;BME280;10774;42.178;26.578;2023-04-07T12:11:32;100049.31;;;17.52;40.71
21234;BME280;10774;42.178;26.578;2023-04-07T12:13:58;100066.97;;;16.87;41.06
21234;BME280;10774;42.178;26.578;2023-04-07T12:16:23;100044.72;;;16.93;41.39
21234;BME280;10774;42.178;26.578;2023-04-07T12:18:50;100049.66;;;16.58;41.41
21234;BME280;10774;42.178;26.578;2023-04-07T12:21:16;100055.00;;;16.27;42.06
21234;BME280;10774;42.178;26.578;2023-04-07T12:23:43;100038.66;;;15.97;42.37
21234;BME280;10774;42.178;26.578;2023-04-07T12:26:08;100038.78;;;15.74;43.09
21234;BME280;10774;42.178;26.578;2023-04-07T12:28:36;100045.25;;;15.17;44.85
21234;BME280;10774;42.178;26.578;2023-04-07T12:31:02;100053.38;;;15.83;43.62
21234;BME280;10774;42.178;26.578;2023-04-07T12:33:27;100042.72;;;15.70;43.41
21234;BME280;10774;42.178;26.578;2023-04-07T12:35:53;100049.84;;;15.71;43.25
21234;BME280;10774;42.178;26.578;2023-04-07T12:38:19;100057.38;;;15.67;43.73
21234;BME280;10774;42.178;26.578;2023-04-07T12:40:44;100038.94;;;15.93;42.94
21234;BME280;10774;42.178;26.578;2023-04-07T12:43:10;100054.22;;;16.15;42.79
21234;BME280;10774;42.178;26.578;2023-04-07T12:45:36;100030.38;;;16.61;42.18
21234;BME280;10774;42.178;26.578;2023-04-07T12:48:01;100049.56;;;16.90;42.23
21234;BME280;10774;42.178;26.578;2023-04-07T12:50:27;100044.19;;;16.99;41.53
21234;BME280;10774;42.178;26.578;2023-04-07T12:52:53;100042.16;;;17.02;41.47
21234;BME280;10774;42.178;26.578;2023-04-07T12:55:19;100049.81;;;16.87;41.83
21234;BME280;10774;42.178;26.578;2023-04-07T12:57:45;100050.25;;;16.82;41.99
21234;BME280;10774;42.178;26.578;2023-04-07T13:00:12;100060.56;;;16.46;42.86
21234;BME280;10774;42.178;26.578;2023-04-07T13:02:37;100043.31;;;16.47;42.98
21234;BME280;10774;42.178;26.578;2023-04-07T13:05:03;100049.19;;;16.73;42.00
21234;BME280;10774;42.178;26.578;2023-04-07T13:07:29;100048.50;;;17.12;42.04
21234;BME280;10774;42.178;26.578;2023-04-07T13:09:54;100058.94;;;16.86;42.03